createdAt,value
2018-05-09T00:00:08.387Z,58.00
2018-05-09T00:02:35.827Z,58.60
2018-05-09T00:05:04.074Z,58.70
2018-05-09T00:07:31.538Z,58.60
2018-05-09T00:09:59.535Z,59.60
2018-05-09T00:12:26.994Z,59.20
2018-05-09T00:14:54.483Z,59.40
2018-05-09T00:17:21.934Z,60.90
2018-05-09T00:19:49.390Z,62.50
2018-05-09T00:22:16.840Z,63.70
2018-05-09T00:24:44.295Z,65.50
2018-05-09T00:27:12.523Z,68.70
2018-05-09T00:29:39.987Z,68.60
2018-05-09T00:32:07.440Z,71.70
2018-05-09T00:34:34.939Z,73.30
2018-05-09T00:37:02.426Z,75.10
2018-05-09T00:39:31.422Z,78.30
2018-05-09T00:41:58.888Z,78.20
2018-05-09T00:44:26.367Z,80.20
2018-05-09T00:46:53.812Z,81.80
2018-05-09T00:49:21.288Z,84.30
2018-05-09T00:51:48.747Z,89.10
2018-05-09T00:54:28.171Z,90.20
2018-05-09T00:56:55.633Z,91.60
2018-05-09T00:59:23.840Z,94.50
2018-05-09T01:01:51.344Z,94.40
2018-05-09T01:04:18.804Z,95.70
2018-05-09T01:06:46.290Z,97.60
2018-05-09T01:09:13.744Z,98.70
2018-05-09T01:11:41.214Z,99.90
2018-05-09T01:14:08.692Z,99.90
2018-05-09T01:16:36.155Z,99.90
2018-05-09T01:19:03.720Z,99.90
2018-05-09T01:21:31.211Z,99.90
2018-05-09T01:23:58.786Z,99.90
2018-05-09T01:26:26.240Z,99.90
2018-05-09T01:28:53.692Z,99.90
2018-05-09T01:31:21.142Z,99.90
2018-05-09T01:33:48.605Z,99.90
2018-05-09T01:36:16.062Z,99.90
2018-05-09T01:38:44.313Z,99.90
2018-05-09T01:41:11.768Z,99.90
2018-05-09T01:43:39.224Z,99.90
2018-05-09T01:46:06.699Z,99.90
2018-05-09T01:48:34.167Z,99.90
2018-05-09T01:51:01.643Z,99.90
2018-05-09T01:53:29.084Z,99.90
2018-05-09T01:55:56.542Z,99.90
2018-05-09T01:58:23.999Z,99.90
2018-05-09T02:00:52.223Z,99.90
2018-05-09T02:03:19.724Z,99.90
2018-05-09T02:05:47.191Z,99.90
2018-05-09T02:08:14.673Z,99.90
2018-05-09T02:10:42.195Z,99.90
2018-05-09T02:13:09.647Z,99.90
2018-05-09T02:15:37.111Z,99.90
2018-05-09T02:18:05.350Z,99.90
2018-05-09T02:20:32.830Z,99.90
2018-05-09T02:23:00.388Z,99.90
2018-05-09T02:25:27.874Z,99.90
2018-05-09T02:27:56.119Z,99.90
2018-05-09T02:30:23.612Z,99.90
2018-05-09T02:32:51.064Z,99.90
2018-05-09T02:35:18.566Z,99.90
2018-05-09T02:37:46.019Z,99.90
2018-05-09T02:40:13.478Z,99.90
2018-05-09T02:42:40.937Z,99.90
2018-05-09T02:45:08.459Z,99.90
2018-05-09T02:47:35.904Z,99.90
2018-05-09T02:50:03.440Z,99.90
2018-05-09T02:52:30.844Z,99.90
2018-05-09T02:54:58.322Z,99.90
2018-05-09T02:57:25.788Z,99.90
2018-05-09T02:59:53.252Z,99.90
2018-05-09T03:02:20.726Z,99.90
2018-05-09T03:04:48.173Z,99.90
2018-05-09T03:07:15.624Z,99.90
2018-05-09T03:09:43.143Z,99.90
2018-05-09T03:12:10.600Z,99.90
2018-05-09T03:14:38.055Z,99.90
2018-05-09T03:17:05.533Z,99.90
2018-05-09T03:19:32.980Z,99.90
2018-05-09T03:22:00.477Z,99.90
2018-05-09T03:24:27.962Z,99.90
2018-05-09T03:26:55.439Z,99.90
2018-05-09T03:29:22.915Z,99.90
2018-05-09T03:31:50.479Z,99.90
2018-05-09T03:34:17.928Z,99.90
2018-05-09T03:36:45.399Z,99.90
2018-05-09T03:39:12.876Z,99.90
2018-05-09T03:41:40.356Z,99.90
2018-05-09T03:44:08.280Z,99.90
2018-05-09T03:46:36.512Z,99.90
2018-05-09T03:49:03.952Z,99.90
2018-05-09T03:51:31.418Z,99.90
2018-05-09T03:53:58.891Z,99.90
2018-05-09T03:56:26.396Z,99.90
2018-05-09T03:58:53.850Z,99.90
2018-05-09T04:01:21.305Z,99.90
2018-05-09T04:04:00.598Z,99.90
2018-05-09T04:06:39.890Z,99.90
2018-05-09T04:09:20.040Z,99.90
2018-05-09T04:11:47.517Z,99.90
2018-05-09T04:14:14.968Z,99.90
2018-05-09T04:16:43.214Z,99.90
2018-05-09T04:19:10.676Z,99.90
2018-05-09T04:21:38.161Z,99.90
2018-05-09T04:24:05.638Z,99.90
2018-05-09T04:26:33.192Z,99.90
2018-05-09T04:29:00.646Z,99.90
2018-05-09T04:31:28.107Z,99.90
2018-05-09T04:33:55.580Z,99.90
2018-05-09T04:36:23.807Z,99.90
2018-05-09T04:38:51.272Z,99.90
2018-05-09T04:41:18.763Z,99.90
2018-05-09T04:43:46.235Z,99.90
2018-05-09T04:46:13.711Z,99.90
2018-05-09T04:48:41.172Z,99.90
2018-05-09T04:51:08.641Z,99.90
2018-05-09T04:53:36.107Z,99.90
2018-05-09T04:56:03.702Z,99.90
2018-05-09T04:58:31.256Z,99.90
2018-05-09T05:00:58.739Z,99.90
2018-05-09T05:03:26.206Z,99.90
2018-05-09T05:05:53.691Z,99.90
2018-05-09T05:08:21.180Z,99.90
2018-05-09T05:10:49.415Z,99.90
2018-05-09T05:13:16.900Z,99.90
2018-05-09T05:15:44.463Z,99.90
2018-05-09T05:18:11.942Z,99.90
2018-05-09T05:20:39.424Z,99.90
2018-05-09T05:23:06.900Z,99.90
2018-05-09T05:25:34.357Z,99.90
2018-05-09T05:28:01.809Z,99.90
2018-05-09T05:30:29.290Z,99.90
2018-05-09T05:32:56.750Z,99.90
2018-05-09T05:35:24.200Z,99.90
2018-05-09T05:37:51.803Z,99.90
2018-05-09T05:40:19.360Z,99.90
2018-05-09T05:42:46.850Z,99.90
2018-05-09T05:45:14.368Z,99.90
2018-05-09T05:47:41.772Z,99.90
2018-05-09T05:50:09.262Z,99.90
2018-05-09T05:52:36.810Z,99.90
2018-05-09T05:55:04.287Z,99.90
2018-05-09T05:57:31.748Z,99.90
2018-05-09T06:00:00.676Z,99.90
2018-05-09T06:02:28.163Z,99.90
2018-05-09T06:04:56.397Z,99.90
2018-05-09T06:07:23.867Z,99.90
2018-05-09T06:09:51.329Z,99.90
2018-05-09T06:12:18.799Z,99.90
2018-05-09T06:14:46.252Z,99.90
2018-05-09T06:17:13.744Z,99.90
2018-05-09T06:19:41.174Z,99.90
2018-05-09T06:22:09.438Z,99.90
2018-05-09T06:24:36.999Z,99.90
2018-05-09T06:27:04.459Z,99.90
2018-05-09T06:29:31.912Z,99.90
2018-05-09T06:31:59.375Z,99.90
2018-05-09T06:34:26.852Z,99.90
2018-05-09T06:36:54.323Z,99.90
2018-05-09T06:39:21.865Z,99.90
2018-05-09T06:41:50.086Z,99.90
2018-05-09T06:44:17.544Z,99.90
2018-05-09T06:46:45.000Z,99.90
2018-05-09T06:49:12.465Z,99.90
2018-05-09T06:51:39.934Z,99.90
2018-05-09T06:54:07.384Z,99.90
2018-05-09T06:56:34.859Z,99.90
2018-05-09T06:59:02.349Z,99.90
2018-05-09T07:01:30.544Z,99.90
2018-05-09T07:03:58.000Z,99.90
2018-05-09T07:06:25.483Z,99.90
2018-05-09T07:08:52.930Z,99.90
2018-05-09T07:11:20.389Z,99.90
2018-05-09T07:13:48.638Z,99.90
2018-05-09T07:16:16.852Z,99.90
2018-05-09T07:18:45.061Z,99.90
2018-05-09T07:21:12.531Z,99.90
2018-05-09T07:23:39.988Z,99.90
2018-05-09T07:26:07.468Z,99.90
2018-05-09T07:28:34.936Z,99.90
2018-05-09T07:31:02.403Z,99.90
2018-05-09T07:33:29.887Z,99.90
2018-05-09T07:35:57.349Z,99.90
2018-05-09T07:38:24.808Z,99.90
2018-05-09T07:40:52.280Z,99.90
2018-05-09T07:43:19.721Z,99.90
2018-05-09T07:45:47.982Z,99.90
2018-05-09T07:48:15.448Z,99.90
2018-05-09T07:50:42.907Z,99.90
2018-05-09T07:53:10.368Z,99.90
2018-05-09T07:55:38.112Z,99.90
2018-05-09T07:58:05.548Z,99.90
2018-05-09T08:00:33.016Z,99.90
2018-05-09T08:03:00.584Z,99.90
2018-05-09T08:05:28.156Z,99.90
2018-05-09T08:07:55.623Z,99.90
2018-05-09T08:10:23.174Z,99.90
2018-05-09T08:12:50.737Z,99.90
2018-05-09T08:15:18.135Z,99.90
2018-05-09T08:17:45.598Z,99.90
2018-05-09T08:20:13.041Z,99.90
2018-05-09T08:22:40.511Z,99.90
2018-05-09T08:25:07.991Z,99.90
2018-05-09T08:27:35.472Z,99.90
2018-05-09T08:30:02.943Z,99.90
2018-05-09T08:32:30.423Z,99.90
2018-05-09T08:34:57.869Z,99.90
2018-05-09T08:37:25.351Z,99.90
2018-05-09T08:39:52.824Z,99.90
2018-05-09T08:42:20.294Z,99.90
2018-05-09T08:44:47.759Z,99.90
2018-05-09T08:47:15.242Z,99.90
2018-05-09T08:49:42.694Z,99.90
2018-05-09T08:52:10.165Z,99.90
2018-05-09T08:54:37.639Z,99.90
2018-05-09T08:57:05.100Z,99.90
2018-05-09T08:59:32.552Z,99.90
2018-05-09T09:02:00.009Z,99.90
2018-05-09T09:04:27.508Z,99.90
2018-05-09T09:06:54.938Z,99.90
2018-05-09T09:09:22.388Z,99.90
2018-05-09T09:11:50.609Z,99.90
2018-05-09T09:14:18.085Z,99.90
2018-05-09T09:16:45.571Z,99.90
2018-05-09T09:19:13.036Z,99.90
2018-05-09T09:21:40.501Z,99.90
2018-05-09T09:24:07.982Z,99.90
2018-05-09T09:26:35.427Z,99.90
2018-05-09T09:29:02.928Z,99.30
2018-05-09T09:31:30.386Z,98.90
2018-05-09T09:33:57.867Z,99.60
2018-05-09T09:36:25.311Z,99.30
2018-05-09T09:38:52.771Z,96.40
2018-05-09T09:41:20.284Z,93.80
2018-05-09T09:43:48.544Z,91.10
2018-05-09T09:46:15.994Z,91.00
2018-05-09T09:48:43.467Z,81.70
2018-05-09T09:51:10.923Z,82.80
2018-05-09T09:53:38.387Z,87.50
2018-05-09T09:56:06.003Z,90.90
2018-05-09T09:58:33.475Z,92.60
2018-05-09T10:01:00.964Z,91.00
2018-05-09T10:03:28.411Z,90.30
2018-05-09T10:05:55.878Z,91.10
2018-05-09T10:08:23.713Z,91.40
2018-05-09T10:10:51.935Z,92.10
2018-05-09T10:13:19.394Z,92.10
2018-05-09T10:15:46.894Z,88.70
2018-05-09T10:18:14.363Z,87.90
2018-05-09T10:20:41.824Z,82.30
2018-05-09T10:23:09.358Z,83.40
2018-05-09T10:25:36.761Z,78.10
2018-05-09T10:28:04.312Z,77.70
2018-05-09T10:30:31.796Z,78.60
2018-05-09T10:32:59.252Z,77.80
2018-05-09T10:35:26.713Z,77.70
2018-05-09T10:37:54.169Z,71.60
2018-05-09T10:40:21.617Z,73.10
2018-05-09T10:42:49.863Z,75.00
2018-05-09T10:45:17.325Z,74.90
2018-05-09T10:47:44.774Z,71.10
2018-05-09T10:50:12.217Z,70.40
2018-05-09T10:52:39.718Z,71.20
2018-05-09T10:55:07.168Z,69.00
2018-05-09T10:57:37.139Z,67.60
2018-05-09T11:00:04.815Z,70.90
2018-05-09T11:02:32.271Z,68.40
2018-05-09T11:04:59.818Z,67.10
2018-05-09T11:07:27.192Z,66.30
2018-05-09T11:09:54.663Z,71.10
2018-05-09T11:12:22.112Z,67.50
2018-05-09T11:14:49.586Z,64.10
2018-05-09T11:17:17.036Z,64.90
2018-05-09T11:19:45.266Z,63.50
2018-05-09T11:22:12.727Z,63.20
2018-05-09T11:24:40.234Z,60.60
2018-05-09T11:27:07.655Z,58.00
2018-05-09T11:29:35.118Z,54.80
2018-05-09T11:32:02.576Z,55.20
2018-05-09T11:34:30.034Z,54.00
2018-05-09T11:36:58.275Z,51.10
2018-05-09T11:39:25.736Z,51.10
2018-05-09T11:41:53.171Z,50.20
2018-05-09T11:44:20.627Z,48.20
2018-05-09T11:46:48.863Z,45.40
2018-05-09T11:49:16.332Z,45.40
2018-05-09T11:51:43.787Z,44.60
2018-05-09T11:54:11.248Z,42.80
2018-05-09T11:56:38.695Z,40.80
2018-05-09T11:59:06.926Z,39.10
2018-05-09T12:01:34.390Z,39.10
2018-05-09T12:04:01.862Z,37.70
2018-05-09T12:06:29.318Z,38.50
2018-05-09T12:08:56.791Z,37.50
2018-05-09T12:11:24.258Z,36.70
2018-05-09T12:13:51.744Z,35.80
2018-05-09T12:16:19.201Z,33.70
2018-05-09T12:18:46.672Z,33.50
2018-05-09T12:21:14.127Z,33.80
2018-05-09T12:23:41.599Z,33.70
2018-05-09T12:26:09.059Z,33.10
2018-05-09T12:28:36.525Z,33.00
2018-05-09T12:31:03.987Z,31.30
2018-05-09T12:33:31.467Z,32.70
2018-05-09T12:35:58.938Z,32.80
2018-05-09T12:38:26.400Z,31.20
2018-05-09T12:40:53.856Z,30.90
2018-05-09T12:43:22.086Z,30.60
2018-05-09T12:45:49.556Z,30.50
2018-05-09T12:48:17.014Z,31.20
2018-05-09T12:50:44.490Z,30.70
2018-05-09T12:53:11.981Z,30.40
2018-05-09T12:55:39.435Z,29.80
2018-05-09T12:58:06.896Z,29.80
2018-05-09T13:00:34.379Z,29.80
2018-05-09T13:03:01.854Z,30.00
2018-05-09T13:05:29.308Z,30.00
2018-05-09T13:07:56.813Z,29.40
2018-05-09T13:10:24.256Z,29.40
2018-05-09T13:12:51.696Z,29.60
2018-05-09T13:15:19.171Z,28.70
2018-05-09T13:17:46.642Z,28.40
2018-05-09T13:20:14.084Z,28.50
2018-05-09T13:22:41.551Z,29.60
2018-05-09T13:25:09.782Z,29.60
2018-05-09T13:27:37.251Z,29.50
2018-05-09T13:30:04.806Z,29.20
2018-05-09T13:32:32.275Z,29.10
2018-05-09T13:34:59.287Z,28.70
2018-05-09T13:37:26.305Z,29.00
2018-05-09T13:39:53.324Z,28.20
2018-05-09T13:42:21.215Z,27.60
2018-05-09T13:44:48.992Z,27.70
2018-05-09T13:47:15.991Z,27.60
2018-05-09T13:49:43.011Z,28.40
2018-05-09T13:52:10.029Z,28.80
2018-05-09T13:54:37.044Z,29.00
2018-05-09T13:57:04.058Z,28.20
2018-05-09T13:59:31.072Z,28.60
2018-05-09T14:01:58.538Z,28.40
2018-05-09T14:04:25.992Z,29.20
2018-05-09T14:06:54.238Z,29.00
2018-05-09T14:09:21.711Z,29.00
2018-05-09T14:11:49.152Z,29.10
2018-05-09T14:14:16.165Z,29.50
2018-05-09T14:16:43.170Z,28.70
2018-05-09T14:19:10.194Z,28.50
2018-05-09T14:21:37.222Z,28.20
2018-05-09T14:24:05.002Z,27.40
2018-05-09T14:26:32.783Z,27.40
2018-05-09T14:29:00.566Z,26.90
2018-05-09T14:31:28.346Z,26.70
2018-05-09T14:33:55.360Z,26.70
2018-05-09T14:36:22.365Z,27.30
2018-05-09T14:38:49.373Z,27.30
2018-05-09T14:41:16.379Z,27.60
2018-05-09T14:43:43.389Z,27.40
2018-05-09T14:46:10.411Z,27.10
2018-05-09T14:48:37.428Z,27.00
2018-05-09T14:51:04.462Z,26.80
2018-05-09T14:53:31.478Z,26.10
2018-05-09T14:55:58.491Z,26.40
2018-05-09T14:58:25.522Z,26.60
2018-05-09T15:00:52.539Z,26.70
2018-05-09T15:03:20.324Z,27.50
2018-05-09T15:05:48.556Z,28.40
2018-05-09T15:08:16.334Z,28.90
2018-05-09T15:10:43.788Z,28.90
2018-05-09T15:13:11.236Z,29.80
2018-05-09T15:15:38.258Z,30.00
2018-05-09T15:18:05.260Z,30.30
2018-05-09T15:20:32.285Z,29.30
2018-05-09T15:23:00.071Z,28.00
2018-05-09T15:25:27.891Z,27.90
2018-05-09T15:27:54.871Z,27.80
2018-05-09T15:30:21.888Z,27.50
2018-05-09T15:32:48.978Z,27.10
2018-05-09T15:35:16.688Z,27.10
2018-05-09T15:37:44.470Z,27.40
2018-05-09T15:40:12.268Z,27.00
2018-05-09T15:42:39.277Z,26.90
2018-05-09T15:45:06.301Z,26.30
2018-05-09T15:47:33.328Z,26.40
2018-05-09T15:50:01.089Z,26.10
2018-05-09T15:52:28.099Z,26.10
2018-05-09T15:54:55.119Z,26.90
2018-05-09T15:57:22.876Z,26.30
2018-05-09T15:59:49.921Z,26.20
2018-05-09T16:02:16.947Z,26.20
2018-05-09T16:04:43.963Z,26.90
2018-05-09T16:07:10.968Z,27.00
2018-05-09T16:09:38.000Z,27.50
2018-05-09T16:12:05.787Z,27.60
2018-05-09T16:14:32.787Z,27.50
2018-05-09T16:16:59.811Z,28.30
2018-05-09T16:19:27.283Z,28.70
2018-05-09T16:21:54.744Z,28.20
2018-05-09T16:24:22.216Z,28.10
2018-05-09T16:26:49.655Z,28.20
2018-05-09T16:29:17.894Z,27.60
2018-05-09T16:31:45.347Z,27.60
2018-05-09T16:34:12.824Z,27.20
2018-05-09T16:36:40.298Z,26.90
2018-05-09T16:39:07.751Z,26.60
2018-05-09T16:41:35.196Z,26.90
2018-05-09T16:44:03.428Z,27.00
2018-05-09T16:46:30.899Z,26.90
2018-05-09T16:48:58.351Z,27.50
2018-05-09T16:51:25.819Z,27.70
2018-05-09T16:53:53.270Z,28.00
2018-05-09T16:56:21.527Z,29.00
2018-05-09T16:58:49.032Z,29.00
2018-05-09T17:01:16.531Z,29.30
2018-05-09T17:03:43.977Z,29.80
2018-05-09T17:06:11.442Z,30.50
2018-05-09T17:08:39.654Z,32.10
2018-05-09T17:11:07.092Z,32.10
2018-05-09T17:13:35.334Z,33.10
2018-05-09T17:16:02.791Z,32.50
2018-05-09T17:18:30.258Z,33.30
2018-05-09T17:20:57.728Z,33.30
2018-05-09T17:23:25.180Z,34.20
2018-05-09T17:25:52.644Z,34.30
2018-05-09T17:28:20.119Z,33.20
2018-05-09T17:30:47.559Z,33.70
2018-05-09T17:33:15.793Z,33.90
2018-05-09T17:35:43.275Z,33.90
2018-05-09T17:38:10.728Z,34.60
2018-05-09T17:40:38.195Z,34.20
2018-05-09T17:43:05.227Z,35.30
2018-05-09T17:45:32.242Z,35.60
2018-05-09T17:47:59.275Z,36.50
2018-05-09T17:50:26.280Z,36.10
2018-05-09T17:52:54.048Z,38.20
2018-05-09T17:55:21.082Z,37.70
2018-05-09T17:57:48.530Z,39.00
2018-05-09T18:00:16.002Z,39.50
2018-05-09T18:02:43.046Z,39.20
2018-05-09T18:05:10.503Z,40.70
2018-05-09T18:07:38.707Z,40.90
2018-05-09T18:10:06.168Z,40.90
2018-05-09T18:12:33.634Z,41.70
2018-05-09T18:15:01.894Z,41.90
2018-05-09T18:17:29.293Z,42.50
2018-05-09T18:19:56.775Z,42.40
2018-05-09T18:22:24.221Z,42.70
2018-05-09T18:24:52.437Z,43.40
2018-05-09T18:27:19.892Z,43.30
2018-05-09T18:29:47.356Z,43.30
2018-05-09T18:32:15.592Z,44.20
2018-05-09T18:34:43.037Z,44.20
2018-05-09T18:37:10.495Z,44.80
2018-05-09T18:39:37.963Z,44.80
2018-05-09T18:42:05.435Z,45.20
2018-05-09T18:44:32.898Z,45.50
2018-05-09T18:47:00.347Z,45.60
2018-05-09T18:49:28.588Z,46.80
2018-05-09T18:51:56.048Z,46.70
2018-05-09T18:54:23.511Z,46.70
2018-05-09T18:56:50.957Z,47.30
2018-05-09T18:59:18.449Z,47.40
2018-05-09T19:01:45.904Z,47.90
2018-05-09T19:04:13.392Z,47.90
2018-05-09T19:06:40.870Z,48.40
2018-05-09T19:09:08.352Z,48.80
2018-05-09T19:11:35.812Z,48.80
2018-05-09T19:14:03.386Z,49.10
2018-05-09T19:16:30.855Z,49.00
2018-05-09T19:18:58.318Z,49.60
2018-05-09T19:21:25.819Z,49.60
2018-05-09T19:23:53.261Z,49.90
2018-05-09T19:26:20.722Z,50.20
2018-05-09T19:28:48.176Z,50.30
2018-05-09T19:31:15.639Z,50.50
2018-05-09T19:33:43.118Z,50.40
2018-05-09T19:36:10.566Z,50.80
2018-05-09T19:38:38.871Z,51.40
2018-05-09T19:41:06.272Z,51.30
2018-05-09T19:43:33.755Z,51.90
2018-05-09T19:46:01.230Z,52.00
2018-05-09T19:51:20.822Z,52.30
2018-05-09T19:53:48.300Z,52.30
2018-05-09T19:56:15.763Z,52.40
2018-05-09T19:58:43.277Z,53.00
2018-05-09T20:01:11.520Z,53.30
2018-05-09T20:03:38.985Z,53.30
2018-05-09T20:06:06.572Z,53.30
2018-05-09T20:08:34.132Z,53.30
2018-05-09T20:11:01.536Z,54.30
2018-05-09T20:13:29.104Z,53.50
2018-05-09T20:15:56.638Z,53.60
2018-05-09T20:18:24.127Z,53.80
2018-05-09T20:20:51.610Z,54.20
2018-05-09T20:23:19.090Z,54.20
2018-05-09T20:25:46.550Z,54.10
2018-05-09T20:28:15.382Z,54.30
2018-05-09T20:30:48.759Z,54.40
2018-05-09T20:33:16.289Z,54.80
2018-05-09T20:35:43.823Z,55.30
2018-05-09T20:38:11.622Z,55.30
2018-05-09T20:40:39.607Z,55.10
2018-05-09T20:43:07.136Z,55.50
2018-05-09T20:45:34.597Z,55.90
2018-05-09T20:48:02.062Z,56.30
2018-05-09T20:50:29.587Z,56.60
2018-05-09T20:52:57.111Z,56.50
2018-05-09T20:55:28.387Z,56.70
2018-05-09T20:57:55.854Z,57.00
2018-05-09T21:00:23.661Z,57.30
2018-05-09T21:02:51.138Z,57.30
2018-05-09T21:05:18.614Z,57.80
2018-05-09T21:07:55.910Z,57.20
2018-05-09T21:10:23.378Z,57.40
2018-05-09T21:12:50.847Z,57.80
2018-05-09T21:15:18.368Z,57.40
2018-05-09T21:17:45.817Z,57.20
2018-05-09T21:20:13.451Z,57.30
2018-05-09T21:22:40.907Z,57.60
2018-05-09T21:25:08.341Z,57.70
2018-05-09T21:27:35.924Z,57.50
2018-05-09T21:30:03.458Z,57.50
2018-05-09T21:32:30.909Z,57.80
2018-05-09T21:34:58.404Z,57.70
2018-05-09T21:37:25.881Z,57.60
2018-05-09T21:39:53.377Z,58.10
2018-05-09T21:42:20.934Z,57.60
2018-05-09T21:44:48.416Z,58.30
2018-05-09T21:47:15.982Z,58.60
2018-05-09T21:49:43.485Z,59.00
2018-05-09T21:52:10.954Z,58.80
2018-05-09T21:54:39.209Z,59.50
2018-05-09T21:57:06.688Z,59.40
2018-05-09T21:59:34.168Z,59.90
2018-05-09T22:02:01.673Z,60.60
2018-05-09T22:04:29.194Z,60.30
2018-05-09T22:06:56.658Z,61.00
2018-05-09T22:09:24.138Z,61.40
2018-05-09T22:11:51.643Z,61.00
2018-05-09T22:14:19.128Z,61.70
2018-05-09T22:16:46.608Z,62.40
2018-05-09T22:19:14.092Z,62.50
2018-05-09T22:21:42.342Z,63.20
2018-05-09T22:24:09.868Z,63.20
2018-05-09T22:26:37.381Z,63.30
2018-05-09T22:29:05.630Z,64.50
2018-05-09T22:31:33.097Z,64.50
2018-05-09T22:34:00.571Z,65.30
2018-05-09T22:36:28.077Z,67.00
2018-05-09T22:38:55.605Z,67.80
2018-05-09T22:41:23.070Z,68.90
2018-05-09T22:43:50.559Z,68.80
2018-05-09T22:46:18.033Z,70.00
2018-05-09T22:48:45.508Z,71.00
2018-05-09T22:51:13.756Z,70.60
2018-05-09T22:53:41.235Z,70.60
2018-05-09T22:56:08.706Z,71.80
2018-05-09T22:58:36.194Z,71.40
2018-05-09T23:01:03.713Z,72.80
2018-05-09T23:03:31.189Z,72.80
2018-05-09T23:05:58.701Z,72.80
2018-05-09T23:08:26.282Z,73.40
2018-05-09T23:10:54.550Z,75.80
2018-05-09T23:13:22.049Z,75.70
2018-05-09T23:15:50.282Z,77.30
2018-05-09T23:18:17.772Z,77.20
2018-05-09T23:20:45.238Z,77.80
2018-05-09T23:23:12.736Z,76.00
2018-05-09T23:25:40.983Z,80.20
2018-05-09T23:28:08.481Z,79.30
2018-05-09T23:30:36.052Z,79.70
2018-05-09T23:33:03.618Z,80.70
2018-05-09T23:35:31.081Z,81.10
2018-05-09T23:37:58.581Z,81.90
2018-05-09T23:40:26.130Z,82.90
2018-05-09T23:42:53.605Z,84.40
2018-05-09T23:45:21.093Z,85.90
2018-05-09T23:47:49.336Z,88.80
2018-05-09T23:50:16.801Z,88.70
2018-05-09T23:52:44.297Z,90.00
2018-05-09T23:55:11.774Z,89.00
2018-05-09T23:57:39.266Z,88.20
